Time;durP1;ratioP1;P1;durP2;ratioP2;P2;SDS_P1;SDS_P2;PMS_P1;PMS_P2;Temp;Humidity;BMP_temperature;BMP_pressure;BME280_temperature;BME280_humidity;BME280_pressure;Samples;Min_cycle;Max_cycle;Signal;HPM_P1;HPM_P2
2022/06/16 00:00:44;;;;;;;6.50;3.08;;;;;;;-145.69;93.34;71131.78;4997065;28;20221;-78
2022/06/16 00:03:11;;;;;;;6.05;3.40;;;;;;;-145.69;93.09;71131.78;4996887;28;20197;-78
2022/06/16 00:05:40;;;;;;;6.68;3.40;;;;;;;-145.69;93.32;71123.81;4996802;28;20339;-78
2022/06/16 00:08:08;;;;;;;5.25;3.00;;;;;;;-145.69;90.73;71101.94;4996799;28;20635;-78
2022/06/16 00:10:38;;;;;;;6.22;3.22;;;;;;;-145.69;90.46;71097.97;4996682;28;20202;-78
2022/06/16 00:13:04;;;;;;;6.93;3.40;;;;;;;-145.69;90.74;71101.94;4996637;28;20212;-78
2022/06/16 00:15:32;;;;;;;8.60;3.03;;;;;;;-145.69;90.52;71107.91;4996486;28;20198;-78
2022/06/16 00:17:59;;;;;;;6.88;3.40;;;;;;;-145.69;90.11;71103.94;4995818;28;20201;-78
2022/06/16 00:20:26;;;;;;;4.63;2.83;;;;;;;-145.69;91.27;71115.88;4996302;28;20228;-78
2022/06/16 00:22:53;;;;;;;6.18;3.28;;;;;;;-145.69;94.62;71133.78;4996448;28;20702;-77
2022/06/16 00:25:19;;;;;;;6.82;3.42;;;;;;;-145.69;94.27;71139.75;4996193;28;20573;-78
2022/06/16 00:27:47;;;;;;;5.55;3.20;;;;;;;-145.69;95.05;71149.69;4996642;28;20197;-79
2022/06/16 00:30:14;;;;;;;8.00;3.40;;;;;;;-145.69;97.32;71165.59;4996450;28;20291;-78
2022/06/16 00:32:42;;;;;;;6.53;3.20;;;;;;;-145.69;97.78;71177.53;4996459;28;20213;-78
2022/06/16 00:35:09;;;;;;;6.28;3.67;;;;;;;-145.69;98.39;71197.44;4995967;28;20660;-78
2022/06/16 00:37:36;;;;;;;8.77;3.45;;;;;;;-145.69;97.71;71183.50;4996243;28;20210;-78
2022/06/16 00:40:03;;;;;;;6.97;3.38;;;;;;;-145.69;96.92;71175.56;4996030;28;20202;-78
2022/06/16 00:42:29;;;;;;;9.02;3.70;;;;;;;-145.69;96.73;71183.50;4996418;28;20201;-77
2022/06/16 00:44:58;;;;;;;5.72;3.65;;;;;;;-145.69;97.73;71183.50;4996075;28;20316;-78
2022/06/16 00:47:28;;;;;;;6.03;3.83;;;;;;;-145.69;96.58;71185.50;4995615;28;20232;-78
2022/06/16 00:49:57;;;;;;;6.07;3.28;;;;;;;-145.69;96.02;71179.53;4995992;28;20201;-78
2022/06/16 00:52:27;;;;;;;6.35;3.58;;;;;;;-145.69;97.15;71177.53;4996056;28;20213;-78
2022/06/16 00:55:01;;;;;;;6.00;3.45;;;;;;;-145.69;95.62;71175.56;4994507;28;20209;-78
2022/06/16 00:57:34;;;;;;;6.55;4.00;;;;;;;-145.69;96.72;71175.56;4995736;28;20201;-77
2022/06/16 01:00:04;;;;;;;7.85;3.70;;;;;;;-145.69;95.51;71163.63;4995466;28;20236;-77
2022/06/16 01:02:30;;;;;;;12.07;3.30;;;;;;;-145.69;94.71;71147.69;4995847;28;20202;-77
2022/06/16 01:04:56;;;;;;;6.93;3.22;;;;;;;-145.69;95.73;71149.69;4995523;28;20699;-77
2022/06/16 01:07:26;;;;;;;9.02;3.78;;;;;;;-145.69;96.74;71163.63;4994018;28;20255;-77
2022/06/16 01:09:55;;;;;;;9.05;3.72;;;;;;;-145.69;97.26;71171.56;4994264;28;20198;-78
2022/06/16 01:15:53;;;;;;;5.43;3.33;;;;;;;-145.69;95.95;71141.72;4976183;28;20229;-79
2022/06/16 01:18:29;;;;;;;6.07;3.45;;;;;;;-145.69;95.65;71145.72;4994472;28;20588;-78
2022/06/16 01:21:04;;;;;;;7.68;3.53;;;;;;;-145.69;94.28;71131.78;4995566;28;20201;-77
2022/06/16 01:23:57;;;;;;;7.78;3.30;;;;;;;-145.69;93.26;71127.81;4994926;28;20275;-78
2022/06/16 01:26:42;;;;;;;7.28;3.42;;;;;;;-145.69;91.91;71125.81;4994362;28;20548;-77
2022/06/16 01:29:17;;;;;;;3.75;2.90;;;;;;;-145.69;90.93;71123.81;4995014;28;20193;-78
2022/06/16 01:31:49;;;;;;;6.20;3.17;;;;;;;-145.69;89.38;71107.91;4995316;28;20209;-77
2022/06/16 01:34:23;;;;;;;5.95;2.95;;;;;;;-145.69;87.12;71086.03;4995476;28;20209;-78
2022/06/16 01:36:54;;;;;;;9.40;3.28;;;;;;;-145.69;87.07;71084.03;4995348;28;20252;-78
2022/06/16 01:39:27;;;;;;;6.47;3.03;;;;;;;-145.69;89.32;71097.97;4995267;28;20206;-78
2022/06/16 01:41:59;;;;;;;5.25;3.00;;;;;;;-145.69;88.16;71111.88;4995307;28;20592;-78
2022/06/16 01:44:34;;;;;;;7.80;3.30;;;;;;;-145.69;88.40;71121.84;4994575;28;20198;-78
2022/06/16 01:47:06;;;;;;;6.38;2.83;;;;;;;-145.69;88.73;71129.78;4993582;28;20247;-78
2022/06/16 01:49:36;;;;;;;4.47;3.13;;;;;;;-145.69;89.55;71127.81;4995061;28;20206;-78
2022/06/16 01:52:10;;;;;;;5.53;3.00;;;;;;;-145.69;86.74;71111.88;4995116;28;20208;-78
2022/06/16 01:54:41;;;;;;;4.80;2.83;;;;;;;-145.69;87.12;71111.88;4994935;28;20206;-78
2022/06/16 01:57:13;;;;;;;5.88;2.72;;;;;;;-145.69;85.99;71099.94;4994762;28;20216;-78
2022/06/16 01:59:47;;;;;;;7.93;3.22;;;;;;;-145.69;87.75;71115.88;4994962;28;20361;-77
2022/06/16 02:02:19;;;;;;;5.43;2.85;;;;;;;-145.69;86.12;71115.88;4994778;28;20213;-77
2022/06/16 02:04:50;;;;;;;4.47;3.00;;;;;;;-145.69;88.41;71119.84;4993471;28;20293;-78
2022/06/16 02:07:22;;;;;;;10.52;3.30;;;;;;;-145.69;86.54;71099.94;4993480;28;20201;-78
2022/06/16 02:09:52;;;;;;;7.25;3.05;;;;;;;-145.69;86.78;71093.97;4994751;28;20281;-77
2022/06/16 02:15:12;;;;;;;4.20;2.80;;;;;;;-145.69;86.24;71099.94;4994231;28;20634;-78
2022/06/16 02:17:38;;;;;;;5.72;3.20;;;;;;;-145.69;87.36;71103.94;4994238;28;20212;-77
2022/06/16 02:20:08;;;;;;;4.68;2.83;;;;;;;-145.69;86.80;71107.91;4994170;28;20233;-78
2022/06/16 02:22:35;;;;;;;5.53;3.25;;;;;;;-145.69;88.46;71111.88;4994545;28;20635;-77
2022/06/16 02:25:02;;;;;;;6.38;3.20;;;;;;;-145.69;87.48;71119.84;4994072;28;20209;-77
2022/06/16 02:27:28;;;;;;;5.70;3.28;;;;;;;-145.69;86.95;71115.88;4994451;28;20208;-78
2022/06/16 02:29:54;;;;;;;5.00;3.15;;;;;;;-145.69;88.29;71117.84;4993898;28;20247;-78
2022/06/16 02:32:40;;;;;;;4.05;2.40;;;;;;;-145.69;87.70;71115.88;4994093;28;20201;-77
2022/06/16 02:35:19;;;;;;;5.72;2.95;;;;;;;-145.69;89.08;71121.84;4994078;28;20197;-78
2022/06/16 02:38:01;;;;;;;9.65;3.38;;;;;;;-145.69;87.83;71127.81;4993696;28;20663;-77
2022/06/16 02:40:41;;;;;;;10.05;3.25;;;;;;;-145.69;88.72;71119.84;4994038;28;20292;-77
2022/06/16 02:43:21;;;;;;;8.13;2.83;;;;;;;-145.69;90.69;71131.78;4994122;28;20283;-77
2022/06/16 02:45:58;;;;;;;9.50;3.45;;;;;;;-145.69;89.37;71131.78;4993747;28;20327;-77
2022/06/16 02:48:32;;;;;;;4.72;2.72;;;;;;;-145.69;88.60;71127.81;4993866;28;20782;-77
2022/06/16 02:51:07;;;;;;;12.05;2.88;;;;;;;-145.69;89.21;71123.81;4993465;28;20656;-77
2022/06/16 02:53:39;;;;;;;6.78;2.45;;;;;;;-145.69;88.81;71117.84;4993619;28;20204;-77
2022/06/16 02:56:24;;;;;;;6.00;2.80;;;;;;;-145.69;88.75;71129.78;4989170;28;20726;-77
2022/06/16 02:58:52;;;;;;;3.65;2.78;;;;;;;-145.69;88.90;71133.78;4992848;28;20202;-78
2022/06/16 03:01:23;;;;;;;5.85;3.00;;;;;;;-145.69;89.91;71135.75;4991533;28;20780;-78
2022/06/16 03:04:06;;;;;;;5.40;2.63;;;;;;;-145.69;86.86;71109.91;4993692;28;20217;-77
2022/06/16 03:06:33;;;;;;;7.57;2.80;;;;;;;-145.69;86.52;71084.03;4993567;28;20229;-77
2022/06/16 03:09:04;;;;;;;6.15;2.67;;;;;;;-145.69;86.59;71084.03;4993304;28;20208;-77
2022/06/16 03:11:31;;;;;;;7.07;2.67;;;;;;;-145.69;86.97;71076.06;4993642;28;20232;-77
2022/06/16 03:14:07;;;;;;;5.15;2.70;;;;;;;-145.69;88.33;71070.09;4993391;28;20281;-77
2022/06/16 03:16:38;;;;;;;4.47;2.40;;;;;;;-145.69;88.17;71066.13;4991454;28;20205;-78
2022/06/16 03:19:09;;;;;;;5.47;2.70;;;;;;;-145.69;89.34;71084.03;4993316;28;20221;-77
2022/06/16 03:21:35;;;;;;;6.93;3.45;;;;;;;-145.69;95.10;71095.97;4993488;28;20652;-78
2022/06/16 03:24:02;;;;;;;7.47;3.05;;;;;;;-145.69;94.21;71117.84;4993037;28;20248;-78
2022/06/16 03:26:32;;;;;;;4.57;2.40;;;;;;;-145.69;90.52;71111.88;4993234;28;20233;-78
2022/06/16 03:28:58;;;;;;;4.47;2.53;;;;;;;-145.69;90.48;71113.88;4993505;28;20264;-78
2022/06/16 03:31:24;;;;;;;7.07;2.70;;;;;;;-145.69;91.48;71111.88;4993860;28;20264;-78
2022/06/16 03:33:54;;;;;;;3.85;2.58;;;;;;;-145.69;90.03;71107.91;4997472;28;20200;-79
2022/06/16 03:36:22;;;;;;;4.57;2.50;;;;;;;-145.69;89.48;71092.00;4997299;28;20259;-76
2022/06/16 03:38:50;;;;;;;4.43;2.78;;;;;;;-145.69;92.37;71080.06;4997316;28;20248;-78
2022/06/16 03:41:19;;;;;;;11.00;2.80;;;;;;;-145.69;87.75;71040.25;4996851;28;20288;-77
2022/06/16 03:43:47;;;;;;;7.30;2.47;;;;;;;-145.69;88.53;71026.31;4997312;28;20205;-78
2022/06/16 03:46:18;;;;;;;5.75;2.13;;;;;;;-145.69;81.01;70994.50;4996977;28;20584;-78
2022/06/16 03:48:44;;;;;;;4.25;1.92;;;;;;;-145.69;79.85;70974.59;4995590;28;20209;-78
2022/06/16 03:51:13;;;;;;;6.28;2.75;;;;;;;-145.69;84.77;70954.69;4996953;28;20252;-77
2022/06/16 03:53:41;;;;;;;3.83;2.55;;;;;;;-145.69;83.31;70988.53;4996901;28;20209;-77
2022/06/16 03:56:09;;;;;;;5.13;2.38;;;;;;;-145.69;85.80;71002.44;4996844;28;20197;-77
2022/06/16 03:58:47;;;;;;;3.85;2.33;;;;;;;-145.69;87.76;71036.28;4996733;28;20657;-77
2022/06/16 04:01:16;;;;;;;7.47;3.15;;;;;;;-145.69;91.23;71052.19;4997015;28;20205;-76
2022/06/16 04:04:01;;;;;;;3.92;2.65;;;;;;;-145.69;92.67;71056.16;4996845;28;20252;-78
2022/06/16 04:06:29;;;;;;;6.13;2.65;;;;;;;-145.69;89.85;71020.34;4996990;28;20241;-77
2022/06/16 04:09:02;;;;;;;4.05;2.42;;;;;;;-145.69;89.23;70996.47;4996788;28;20209;-78
2022/06/16 04:11:35;;;;;;;6.45;2.70;;;;;;;-145.69;85.34;70950.72;4996715;28;20714;-78
2022/06/16 04:14:07;;;;;;;5.75;2.50;;;;;;;-145.69;85.63;70920.88;4996732;28;20208;-77
2022/06/16 04:16:36;;;;;;;5.90;2.40;;;;;;;-145.69;84.97;70934.81;4996274;28;20194;-77
2022/06/16 04:19:04;;;;;;;5.20;2.80;;;;;;;-145.69;89.30;70934.81;4995456;28;20284;-78
2022/06/16 04:21:31;;;;;;;9.35;2.60;;;;;;;-145.69;83.10;70916.91;4995637;28;20198;-77
2022/06/16 04:24:02;;;;;;;6.85;2.58;;;;;;;-145.69;81.12;70899.00;4995383;28;20201;-77
2022/06/16 04:26:28;;;;;;;4.60;2.40;;;;;;;-145.69;81.18;70908.94;4996460;28;20595;-77
2022/06/16 04:28:57;;;;;;;4.15;2.60;;;;;;;-145.69;81.87;70904.97;4996385;28;20213;-77
2022/06/16 04:31:26;;;;;;;6.63;2.80;;;;;;;-145.69;82.92;70889.03;4996325;28;20674;-77
2022/06/16 04:33:53;;;;;;;5.25;2.58;;;;;;;-145.69;85.25;70885.06;4996297;28;20205;-77
2022/06/16 04:36:19;;;;;;;4.18;2.50;;;;;;;-145.69;94.96;70920.88;4995769;28;20661;-77
2022/06/16 04:38:48;;;;;;;9.70;3.10;;;;;;;-145.69;92.03;70916.91;4996308;28;20201;-78
2022/06/16 04:41:16;;;;;;;4.85;2.28;;;;;;;-145.69;89.67;70904.97;4996015;28;20205;-78
2022/06/16 04:43:45;;;;;;;5.18;2.70;;;;;;;-145.69;87.61;70861.19;4996014;28;20251;-78
2022/06/16 04:46:16;;;;;;;11.23;3.03;;;;;;;-145.69;83.88;70833.34;4996054;28;20279;-77
2022/06/16 04:48:44;;;;;;;8.27;2.70;;;;;;;-145.69;81.32;70811.44;4996465;28;20205;-77
2022/06/16 04:51:12;;;;;;;6.55;2.80;;;;;;;-145.69;82.69;70801.50;4996252;28;20209;-78
2022/06/16 04:53:38;;;;;;;6.40;2.55;;;;;;;-145.69;84.89;70813.44;4995994;28;20216;-77
2022/06/16 04:56:08;;;;;;;4.88;2.42;;;;;;;-145.69;86.34;70813.44;4994664;28;20503;-80
2022/06/16 04:58:36;;;;;;;4.75;2.58;;;;;;;-145.69;86.14;70799.50;4996062;28;20208;-80
2022/06/16 05:01:05;;;;;;;4.07;2.50;;;;;;;-145.69;85.56;70773.66;4995901;28;20268;-79
2022/06/16 05:03:31;;;;;;;5.10;2.45;;;;;;;-145.69;83.54;70745.78;4995895;28;20201;-80
2022/06/16 05:06:00;;;;;;;5.60;2.40;;;;;;;-145.69;88.41;70723.91;4995691;28;20236;-79
2022/06/16 05:08:26;;;;;;;8.23;2.70;;;;;;;-145.69;85.87;70725.91;4995717;28;20209;-79
2022/06/16 05:10:53;;;;;;;4.15;2.70;;;;;;;-145.69;86.38;70713.97;4995629;28;20616;-79
2022/06/16 05:13:20;;;;;;;5.78;2.80;;;;;;;-145.69;85.61;70690.09;4995777;28;20237;-79
2022/06/16 05:15:52;;;;;;;5.47;2.60;;;;;;;-145.69;83.80;70670.19;4995298;28;20311;-79
2022/06/16 05:18:19;;;;;;;4.68;2.80;;;;;;;-145.69;87.10;70674.16;4995123;28;20209;-79
2022/06/16 05:20:45;;;;;;;4.65;2.42;;;;;;;-145.69;85.45;70650.28;4995239;28;20213;-80
2022/06/16 05:23:19;;;;;;;6.25;3.08;;;;;;;-145.69;88.18;70646.31;4995380;28;20205;-79
2022/06/16 05:25:48;;;;;;;5.63;3.08;;;;;;;-145.69;84.81;70584.66;4995496;28;20201;-79
2022/06/16 05:28:15;;;;;;;6.80;2.80;;;;;;;-145.69;85.70;70564.75;4995354;28;20296;-79
2022/06/16 05:30:41;;;;;;;5.70;2.63;;;;;;;-145.69;83.29;70538.88;4994716;28;20503;-79
2022/06/16 05:33:09;;;;;;;4.20;2.20;;;;;;;-145.69;80.02;70491.13;4995194;28;20679;-79
2022/06/16 05:35:37;;;;;;;10.00;2.95;;;;;;;-145.69;79.07;70437.44;4994671;28;20201;-80
2022/06/16 05:38:05;;;;;;;4.00;2.38;;;;;;;-145.69;76.01;70403.59;4995024;28;20201;-79
2022/06/16 05:40:32;;;;;;;9.27;2.65;;;;;;;-145.69;75.69;70395.66;4995180;28;20205;-80
2022/06/16 05:43:00;;;;;;;6.40;2.50;;;;;;;-145.69;78.36;70397.63;4995032;28;20205;-80
2022/06/16 05:45:27;;;;;;;4.63;2.38;;;;;;;-145.69;78.88;70393.66;4994987;28;20588;-80
2022/06/16 05:47:54;;;;;;;3.72;2.47;;;;;;;-145.69;78.06;70373.78;4994543;28;20299;-80
2022/06/16 05:50:26;;;;;;;3.50;2.50;;;;;;;-145.69;79.55;70353.88;4994638;28;20292;-80
2022/06/16 05:52:52;;;;;;;3.10;2.28;;;;;;;-145.69;75.84;70347.91;4995040;28;20201;-80
2022/06/16 05:55:19;;;;;;;7.15;2.63;;;;;;;-145.69;75.60;70308.13;4994209;28;20194;-80
2022/06/16 05:57:45;;;;;;;13.35;3.20;;;;;;;-145.69;77.58;70312.09;4994881;28;20271;-80
2022/06/16 06:00:13;;;;;;;6.35;2.58;;;;;;;-145.69;77.96;70395.66;4995293;28;20209;-80
2022/06/16 06:02:40;;;;;;;7.38;2.78;;;;;;;-145.69;91.66;70499.09;4994541;28;20208;-79
2022/06/16 06:05:07;;;;;;;8.25;2.88;;;;;;;-145.69;85.99;70519.00;4994677;28;20201;-79
2022/06/16 06:18:33;;;;;;;7.45;3.60;;;;;;;-145.69;100.00;70554.81;4994349;28;20220;-79
2022/06/16 06:21:08;;;;;;;7.65;3.65;;;;;;;-145.69;100.00;70503.06;4994389;28;20201;-79
2022/06/16 06:23:36;;;;;;;6.03;3.83;;;;;;;-145.69;100.00;70493.13;4994301;28;20564;-79
2022/06/16 06:26:06;;;;;;;6.10;3.22;;;;;;;-145.69;100.00;70475.22;4994467;28;20261;-80
2022/06/16 06:28:32;;;;;;;10.32;4.00;;;;;;;-145.69;100.00;70511.03;4994394;28;20197;-79
2022/06/16 06:30:59;;;;;;;9.20;3.25;;;;;;;-145.69;89.04;70614.47;4993883;28;20579;-78
2022/06/16 06:33:28;;;;;;;8.27;3.20;;;;;;;-145.69;91.27;70709.97;4993716;28;20203;-76
2022/06/16 06:35:56;;;;;;;14.38;4.53;;;;;;;-145.69;100.00;70791.56;4993998;28;20675;-76
2022/06/16 06:38:23;;;;;;;7.45;4.38;;;;;;;-145.69;100.00;70835.31;4994223;28;20205;-76
2022/06/16 06:40:51;;;;;;;11.55;5.15;;;;;;;-145.69;100.00;70841.28;4994052;28;20200;-77
2022/06/16 06:43:17;;;;;;;13.10;5.70;;;;;;;-145.69;100.00;70857.22;4994109;28;20206;-77
2022/06/16 06:45:44;;;;;;;13.88;6.50;;;;;;;-145.69;100.00;70871.13;4993794;28;20201;-77
2022/06/16 06:48:10;;;;;;;21.63;7.40;;;;;;;-145.69;100.00;70879.09;4993583;28;20296;-77
2022/06/16 06:50:39;;;;;;;13.30;6.00;;;;;;;-145.69;100.00;70897.00;4993757;28;20207;-78
2022/06/16 06:53:06;;;;;;;12.95;6.35;;;;;;;-145.69;100.00;70899.00;4993861;28;20236;-78
2022/06/16 06:55:33;;;;;;;13.98;8.25;;;;;;;-145.69;100.00;70883.06;4993746;28;20670;-78
2022/06/16 06:58:02;;;;;;;13.55;7.65;;;;;;;-145.69;100.00;70865.16;4994038;28;20209;-78
2022/06/16 07:00:29;;;;;;;16.13;8.38;;;;;;;-145.69;100.00;70825.38;4993594;28;20625;-79
2022/06/16 07:02:55;;;;;;;16.17;6.90;;;;;;;-145.69;100.00;70815.44;4993752;28;20695;-79
2022/06/16 07:05:21;;;;;;;10.52;6.05;;;;;;;-145.69;100.00;70789.56;4993605;28;20205;-78
2022/06/16 07:07:48;;;;;;;17.25;6.75;;;;;;;-145.69;100.00;70749.78;4992883;28;20213;-79
2022/06/16 07:10:17;;;;;;;16.60;6.47;;;;;;;-145.69;100.00;70717.94;4993849;28;20205;-78
2022/06/16 07:12:44;;;;;;;9.40;5.32;;;;;;;-145.69;100.00;70698.03;4993669;28;20205;-78
2022/06/16 07:15:12;;;;;;;11.00;5.03;;;;;;;-145.69;100.00;70634.38;4993767;28;20209;-79
2022/06/16 07:17:38;;;;;;;13.27;5.85;;;;;;;-145.69;100.00;70614.47;4993545;28;20202;-78
2022/06/16 07:20:06;;;;;;;21.05;5.97;;;;;;;-145.69;100.00;70576.69;4993538;28;20201;-78
2022/06/16 07:22:35;;;;;;;7.40;4.05;;;;;;;-145.69;100.00;70538.88;4993468;28;20683;-78
2022/06/16 07:25:02;;;;;;;6.85;4.35;;;;;;;-145.69;100.00;70471.25;4993025;28;20568;-78
2022/06/16 07:27:30;;;;;;;9.75;4.45;;;;;;;-145.69;100.00;70439.41;4993489;28;20229;-79
2022/06/16 07:29:56;;;;;;;8.65;4.47;;;;;;;-145.69;100.00;70409.56;4993515;28;20213;-78
2022/06/16 07:32:24;;;;;;;8.00;3.78;;;;;;;-145.69;100.00;70353.88;4993342;28;20623;-78
2022/06/16 07:34:50;;;;;;;9.75;3.80;;;;;;;-145.69;96.56;70308.13;4993594;28;20612;-78
2022/06/16 07:37:17;;;;;;;7.03;3.60;;;;;;;-145.69;92.23;70278.28;4993497;28;20220;-78
2022/06/16 07:39:44;;;;;;;10.63;4.00;;;;;;;-145.69;86.58;70256.41;4992949;28;20209;-79
2022/06/16 07:42:13;;;;;;;17.02;4.00;;;;;;;-145.69;84.91;70198.72;4993555;28;20238;-78
2022/06/16 07:44:40;;;;;;;6.47;3.35;;;;;;;-145.69;88.94;70248.44;4992795;28;20260;-78
2022/06/16 07:47:07;;;;;;;6.47;3.50;;;;;;;-145.69;84.32;70268.34;4992958;28;20237;-78
2022/06/16 07:49:35;;;;;;;11.88;4.13;;;;;;;-145.69;81.81;70320.06;4993384;28;20215;-78
2022/06/16 07:52:01;;;;;;;14.07;3.90;;;;;;;-145.69;82.06;70409.56;4993142;28;20212;-79
2022/06/16 07:54:29;;;;;;;10.50;3.60;;;;;;;-145.69;91.13;70417.53;4993268;28;20608;-78
2022/06/16 07:56:56;;;;;;;11.35;3.90;;;;;;;-145.69;88.26;70373.78;4993365;28;20201;-78
2022/06/16 07:59:22;;;;;;;8.05;3.78;;;;;;;-145.69;76.73;70345.91;4992791;28;20202;-79
2022/06/16 08:01:48;;;;;;;8.57;3.42;;;;;;;-145.69;73.59;70322.03;4993014;28;20202;-79
2022/06/16 08:04:15;;;;;;;7.25;3.78;;;;;;;-145.69;84.73;70294.19;4993272;28;20228;-79
2022/06/16 08:06:43;;;;;;;8.10;3.50;;;;;;;-145.69;85.07;70262.38;4992708;28;20202;-79
2022/06/16 08:09:11;;;;;;;8.73;3.17;;;;;;;-145.69;73.42;70242.47;4993214;28;20252;-80
2022/06/16 08:14:27;;;;;;;6.72;3.08;;;;;;;-145.69;65.44;70314.09;4982594;28;20201;-79
2022/06/16 08:16:54;;;;;;;10.75;3.35;;;;;;;-145.69;73.57;70328.00;4993154;28;20618;-79
2022/06/16 08:19:21;;;;;;;7.13;2.88;;;;;;;-145.69;68.51;70365.81;4996331;28;20201;-80
2022/06/16 08:21:50;;;;;;;9.40;3.28;;;;;;;-145.69;60.01;70363.81;4996457;28;20205;-79
2022/06/16 08:24:17;;;;;;;8.75;3.33;;;;;;;-145.69;66.87;70371.78;4996535;28;20205;-80
2022/06/16 08:26:45;;;;;;;8.90;3.03;;;;;;;-145.69;65.49;70324.03;4996346;28;20272;-79
2022/06/16 08:29:14;;;;;;;7.05;3.35;;;;;;;-145.69;64.76;70312.09;4996423;28;20706;-80
2022/06/16 08:31:41;;;;;;;9.50;3.25;;;;;;;-145.69;59.59;70310.09;4996524;28;20692;-79
2022/06/16 08:34:08;;;;;;;5.97;3.00;;;;;;;-145.69;63.36;70302.16;4996578;28;20227;-79
2022/06/16 08:36:34;;;;;;;7.95;3.10;;;;;;;-145.69;61.92;70248.44;4996533;28;20209;-80
2022/06/16 08:39:06;;;;;;;4.63;2.63;;;;;;;-145.69;64.40;70176.81;4996172;28;20259;-79
2022/06/16 08:41:38;;;;;;;7.18;2.92;;;;;;;-145.69;62.82;70081.34;4996045;28;20197;-79
2022/06/16 08:44:11;;;;;;;5.00;2.72;;;;;;;-145.69;55.31;70137.03;4996365;28;20264;-79
2022/06/16 08:46:42;;;;;;;8.52;2.90;;;;;;;-145.69;55.87;70137.03;4996054;28;20237;-79
2022/06/16 08:49:22;;;;;;;9.07;3.00;;;;;;;-145.69;58.15;70147.00;4996091;28;20240;-79
2022/06/16 08:52:09;;;;;;;5.78;2.53;;;;;;;-145.69;57.47;70111.19;4995877;28;20209;-80
2022/06/16 08:54:50;;;;;;;7.00;2.30;;;;;;;-145.69;56.55;70141.03;4996253;28;20549;-78
2022/06/16 08:57:27;;;;;;;7.18;2.35;;;;;;;-145.69;55.82;70103.22;4996174;28;20209;-78
2022/06/16 08:59:59;;;;;;;10.35;2.58;;;;;;;-145.69;53.39;70077.38;4995248;28;20212;-79
2022/06/16 09:02:32;;;;;;;4.93;2.38;;;;;;;-145.69;51.77;70129.09;4975343;28;20921;-79
2022/06/16 09:05:05;;;;;;;5.22;2.40;;;;;;;-145.69;53.83;70099.25;4976368;28;20213;-79
2022/06/16 09:07:45;;;;;;;4.78;2.10;;;;;;;-145.69;53.62;70103.22;4976334;28;20320;-79
2022/06/16 09:10:24;;;;;;;7.88;2.72;;;;;;;-145.69;52.01;70073.38;4976317;28;20202;-79
2022/06/16 09:13:28;;;;;;;4.93;2.65;;;;;;;-145.69;52.72;70087.31;4976399;28;20292;-79
2022/06/16 09:16:07;;;;;;;6.47;2.50;;;;;;;-145.69;53.83;70107.19;4984823;28;20556;-79
2022/06/16 09:18:58;;;;;;;4.60;2.33;;;;;;;-145.69;52.11;70170.84;4991866;28;20193;-78
2022/06/16 09:21:34;;;;;;;4.53;2.42;;;;;;;-145.69;53.75;70150.97;4995098;28;20209;-79
2022/06/16 09:24:26;;;;;;;3.88;2.50;;;;;;;-145.69;51.65;70184.78;4995319;28;20193;-79
2022/06/16 09:27:00;;;;;;;6.97;2.65;;;;;;;-145.69;57.23;70133.06;4995055;28;20197;-79
2022/06/16 09:29:34;;;;;;;6.63;2.50;;;;;;;-145.69;52.35;70152.97;4994719;28;20209;-79
2022/06/16 09:32:10;;;;;;;6.25;2.45;;;;;;;-145.69;56.70;70119.13;4995373;28;20201;-79
2022/06/16 09:34:42;;;;;;;6.63;2.80;;;;;;;-145.69;52.35;70091.28;4995310;28;20263;-79
2022/06/16 09:37:14;;;;;;;7.25;2.70;;;;;;;-145.69;54.60;70055.47;4994900;28;20205;-79
2022/06/16 09:39:44;;;;;;;11.07;2.72;;;;;;;-145.69;55.97;70033.59;4995530;28;20648;-79
2022/06/16 09:42:33;;;;;;;7.43;2.70;;;;;;;-145.69;49.15;70057.47;4995336;28;20206;-79
2022/06/16 09:45:05;;;;;;;3.80;2.13;;;;;;;-145.69;47.75;69993.81;4995090;28;20208;-79
2022/06/16 09:47:41;;;;;;;5.63;2.28;;;;;;;-145.69;45.32;69954.03;4994655;28;20233;-79
2022/06/16 09:50:13;;;;;;;7.57;2.70;;;;;;;-145.69;42.77;69948.06;4995133;28;20201;-80
2022/06/16 09:52:46;;;;;;;2.65;2.05;;;;;;;-145.69;41.89;69934.16;4994778;28;20671;-80
2022/06/16 09:55:19;;;;;;;4.80;2.08;;;;;;;-145.69;39.01;69960.00;4994676;28;20272;-76
2022/06/16 09:57:53;;;;;;;3.30;1.80;;;;;;;-145.69;40.21;69930.16;4995252;28;20213;-79
2022/06/16 10:00:21;;;;;;;2.85;1.77;;;;;;;-145.69;37.60;69956.03;4994817;28;20644;-78
2022/06/16 10:02:52;;;;;;;4.18;1.63;;;;;;;-145.69;42.56;69973.94;4994462;28;20573;-79
2022/06/16 10:05:37;;;;;;;4.45;1.60;;;;;;;-145.69;38.98;69946.09;4994730;28;20241;-79
2022/06/16 10:08:11;;;;;;;5.15;1.90;;;;;;;-145.69;37.48;70035.59;4994424;28;20250;-79
2022/06/16 10:10:45;;;;;;;6.15;1.50;;;;;;;-145.69;38.15;70037.59;4994558;28;20213;-79
2022/06/16 10:13:25;;;;;;;7.50;2.08;;;;;;;-145.69;40.54;70011.72;4994562;28;20204;-78
2022/06/16 10:15:58;;;;;;;3.58;1.90;;;;;;;-145.69;40.34;70031.63;4994439;28;20220;-79
2022/06/16 10:18:24;;;;;;;4.90;1.65;;;;;;;-145.69;38.32;70053.50;4994281;28;20205;-79
2022/06/16 10:20:51;;;;;;;4.35;1.98;;;;;;;-145.69;39.64;70059.47;4994257;28;20609;-78
2022/06/16 10:23:22;;;;;;;7.93;2.00;;;;;;;-145.69;37.11;70039.56;4994318;28;20201;-79
2022/06/16 10:25:54;;;;;;;7.20;2.00;;;;;;;-145.69;38.65;70041.56;4994531;28;20209;-79
2022/06/16 10:28:28;;;;;;;3.38;1.70;;;;;;;-145.69;37.78;70083.34;4994402;28;20237;-79
2022/06/16 10:30:56;;;;;;;4.95;1.73;;;;;;;-145.69;38.97;70091.28;4994421;28;20201;-78
2022/06/16 10:33:25;;;;;;;5.90;1.90;;;;;;;-145.69;39.41;70117.16;4994151;28;20296;-78
2022/06/16 10:35:54;;;;;;;5.38;1.80;;;;;;;-145.69;39.34;70069.41;4993948;28;20213;-78
2022/06/16 10:38:29;;;;;;;5.90;1.85;;;;;;;-145.69;41.90;70037.59;4994460;28;20284;-78
2022/06/16 10:40:57;;;;;;;4.20;2.00;;;;;;;-145.69;39.38;70023.66;4994047;28;20205;-78
2022/06/16 10:43:27;;;;;;;3.70;2.17;;;;;;;-145.69;38.60;70051.50;4994023;28;20228;-79
2022/06/16 10:45:56;;;;;;;4.63;1.73;;;;;;;-145.69;38.71;70051.50;4992587;28;20229;-79
2022/06/16 10:48:29;;;;;;;7.70;1.83;;;;;;;-145.69;42.56;70033.59;4993196;28;20588;-79
2022/06/16 10:51:08;;;;;;;11.15;2.33;;;;;;;-145.69;41.26;70015.69;4993932;28;20201;-77
2022/06/16 10:53:39;;;;;;;13.80;2.00;;;;;;;-145.69;38.72;69993.81;4993870;28;20201;-77
2022/06/16 10:56:11;;;;;;;8.40;1.90;;;;;;;-145.69;38.42;70033.59;4993669;28;20255;-76
2022/06/16 10:58:49;;;;;;;4.32;1.88;;;;;;;-145.69;39.60;70049.50;4993709;28;20284;-77
2022/06/16 11:01:18;;;;;;;4.43;2.05;;;;;;;-145.69;40.48;69995.81;4993698;28;20652;-78
2022/06/16 11:03:48;;;;;;;3.58;1.92;;;;;;;-145.69;37.87;69981.88;4993823;28;20205;-78
2022/06/16 11:06:16;;;;;;;5.07;1.75;;;;;;;-145.69;39.75;69991.84;4993721;28;20197;-79
2022/06/16 11:08:46;;;;;;;5.70;2.13;;;;;;;-145.69;41.01;70005.75;4993515;28;20225;-77
2022/06/16 11:11:16;;;;;;;4.93;1.77;;;;;;;-145.69;41.24;70029.63;4993182;28;20205;-77
2022/06/16 11:13:50;;;;;;;6.88;1.90;;;;;;;-145.69;40.02;70037.59;4993375;28;20202;-78
2022/06/16 11:16:27;;;;;;;3.80;2.17;;;;;;;-145.69;41.59;70043.56;4993592;28;20205;-78
2022/06/16 11:18:56;;;;;;;5.13;2.10;;;;;;;-145.69;38.70;69993.81;4993259;28;20748;-79
2022/06/16 11:21:28;;;;;;;3.17;2.05;;;;;;;-145.69;38.49;69967.97;4992873;28;20248;-79
2022/06/16 11:23:57;;;;;;;4.45;1.77;;;;;;;-145.69;37.39;69973.94;4993760;28;20209;-78
2022/06/16 11:26:28;;;;;;;5.45;2.03;;;;;;;-145.69;39.80;69981.88;4993822;28;20205;-78
2022/06/16 11:28:58;;;;;;;4.57;1.70;;;;;;;-145.69;38.80;70005.75;4993328;28;20236;-79
2022/06/16 11:31:37;;;;;;;4.55;1.90;;;;;;;-145.69;37.45;69997.78;4993668;28;20205;-78
2022/06/16 11:34:14;;;;;;;4.93;2.15;;;;;;;-145.69;37.22;69997.78;4993252;28;20213;-78
2022/06/16 11:37:08;;;;;;;4.63;1.70;;;;;;;-145.69;40.33;69940.13;4993407;28;20537;-79
2022/06/16 11:39:49;;;;;;;6.75;2.28;;;;;;;-145.69;37.47;69908.28;4993300;28;20665;-79
2022/06/16 11:42:28;;;;;;;4.80;1.63;;;;;;;-145.69;34.76;69918.22;4993183;28;20209;-78
2022/06/16 11:45:05;;;;;;;4.32;1.65;;;;;;;-145.69;34.40;69900.34;4993130;28;20204;-78
2022/06/16 11:47:44;;;;;;;7.43;1.85;;;;;;;-145.69;32.28;69934.16;4993161;28;20283;-77
2022/06/16 11:50:18;;;;;;;3.08;1.50;;;;;;;-145.69;32.62;69962.00;4993293;28;20209;-78